sensor_id;sensor_type;location;lat;lon;timestamp;pressure;altitude;pressure_sealevel;temperature;humidity
44934;BME280;30667;43.614;1.442;2023-03-20T00:00:35;100756.75;;;9.78;100.00
44934;BME280;30667;43.614;1.442;2023-03-20T00:03:02;100761.66;;;9.81;100.00
44934;BME280;30667;43.614;1.442;2023-03-20T00:05:29;100762.50;;;9.81;100.00
44934;BME280;30667;43.614;1.442;2023-03-20T00:07:55;100769.50;;;9.82;100.00
44934;BME280;30667;43.614;1.442;2023-03-20T00:10:24;100760.34;;;9.84;100.00
44934;BME280;30667;43.614;1.442;2023-03-20T00:12:51;100758.44;;;9.84;100.00
44934;BME280;30667;43.614;1.442;2023-03-20T00:17:53;100766.03;;;9.87;100.00
44934;BME280;30667;43.614;1.442;2023-03-20T00:20:20;100761.47;;;9.88;100.00
44934;BME280;30667;43.614;1.442;2023-03-20T00:22:46;100759.84;;;9.87;100.00
44934;BME280;30667;43.614;1.442;2023-03-20T00:25:17;100759.63;;;9.93;100.00
44934;BME280;30667;43.614;1.442;2023-03-20T00:27:44;100753.41;;;9.93;100.00
44934;BME280;30667;43.614;1.442;2023-03-20T00:30:20;100754.72;;;9.90;100.00
44934;BME280;30667;43.614;1.442;2023-03-20T00:32:48;100757.44;;;9.90;100.00
44934;BME280;30667;43.614;1.442;2023-03-20T00:35:22;100758.78;;;9.88;100.00
44934;BME280;30667;43.614;1.442;2023-03-20T00:37:49;100752.28;;;9.89;100.00
44934;BME280;30667;43.614;1.442;2023-03-20T00:40:15;100749.31;;;9.90;100.00
44934;BME280;30667;43.614;1.442;2023-03-20T00:42:42;100753.91;;;9.90;100.00
44934;BME280;30667;43.614;1.442;2023-03-20T00:45:14;100746.31;;;9.87;100.00
44934;BME280;30667;43.614;1.442;2023-03-20T00:47:41;100756.31;;;9.86;100.00
44934;BME280;30667;43.614;1.442;2023-03-20T00:50:15;100749.53;;;9.84;100.00
44934;BME280;30667;43.614;1.442;2023-03-20T00:52:42;100744.88;;;9.79;100.00
44934;BME280;30667;43.614;1.442;2023-03-20T00:55:09;100735.66;;;9.75;100.00
44934;BME280;30667;43.614;1.442;2023-03-20T00:57:44;100734.28;;;9.72;100.00
44934;BME280;30667;43.614;1.442;2023-03-20T01:02:45;100714.19;;;9.63;100.00
44934;BME280;30667;43.614;1.442;2023-03-20T01:05:10;100727.94;;;9.61;100.00
44934;BME280;30667;43.614;1.442;2023-03-20T01:07:37;100722.50;;;9.56;100.00
44934;BME280;30667;43.614;1.442;2023-03-20T01:10:04;100727.34;;;9.54;100.00
44934;BME280;30667;43.614;1.442;2023-03-20T01:12:29;100723.25;;;9.52;100.00
44934;BME280;30667;43.614;1.442;2023-03-20T01:14:56;100717.84;;;9.52;100.00
44934;BME280;30667;43.614;1.442;2023-03-20T01:17:23;100719.16;;;9.49;100.00
44934;BME280;30667;43.614;1.442;2023-03-20T01:19:49;100715.91;;;9.47;100.00
44934;BME280;30667;43.614;1.442;2023-03-20T01:22:15;100709.94;;;9.45;100.00
44934;BME280;30667;43.614;1.442;2023-03-20T01:24:42;100700.19;;;9.44;100.00
44934;BME280;30667;43.614;1.442;2023-03-20T01:27:13;100701.53;;;9.41;100.00
44934;BME280;30667;43.614;1.442;2023-03-20T01:29:40;100693.94;;;9.38;100.00
44934;BME280;30667;43.614;1.442;2023-03-20T01:32:15;100693.09;;;9.38;100.00
44934;BME280;30667;43.614;1.442;2023-03-20T01:34:41;100679.34;;;9.39;100.00
44934;BME280;30667;43.614;1.442;2023-03-20T01:37:17;100688.28;;;9.40;100.00
44934;BME280;30667;43.614;1.442;2023-03-20T01:39:45;100685.84;;;9.38;100.00
44934;BME280;30667;43.614;1.442;2023-03-20T01:42:14;100684.69;;;9.34;100.00
44934;BME280;30667;43.614;1.442;2023-03-20T01:44:40;100681.69;;;9.31;100.00
44934;BME280;30667;43.614;1.442;2023-03-20T01:47:14;100674.91;;;9.28;100.00
44934;BME280;30667;43.614;1.442;2023-03-20T01:52:44;100674.03;;;9.22;100.00
44934;BME280;30667;43.614;1.442;2023-03-20T01:55:10;100670.19;;;9.18;100.00
44934;BME280;30667;43.614;1.442;2023-03-20T01:57:36;100667.19;;;9.15;100.00
44934;BME280;30667;43.614;1.442;2023-03-20T02:00:05;100663.34;;;9.11;100.00
44934;BME280;30667;43.614;1.442;2023-03-20T02:02:36;100665.50;;;9.08;100.00
44934;BME280;30667;43.614;1.442;2023-03-20T02:05:06;100662.50;;;9.05;100.00
44934;BME280;30667;43.614;1.442;2023-03-20T02:07:34;100660.03;;;9.03;100.00
44934;BME280;30667;43.614;1.442;2023-03-20T02:10:01;100659.72;;;9.00;100.00
44934;BME280;30667;43.614;1.442;2023-03-20T02:12:28;100658.34;;;8.97;100.00
44934;BME280;30667;43.614;1.442;2023-03-20T02:14:53;100656.72;;;8.96;100.00
44934;BME280;30667;43.614;1.442;2023-03-20T02:17:20;100661.00;;;8.92;100.00
44934;BME280;30667;43.614;1.442;2023-03-20T02:34:00;100653.81;;;9.03;100.00
44934;BME280;30667;43.614;1.442;2023-03-20T02:39:12;100655.16;;;9.00;100.00
44934;BME280;30667;43.614;1.442;2023-03-20T02:41:51;100655.16;;;9.00;100.00
44934;BME280;30667;43.614;1.442;2023-03-20T02:44:23;100650.25;;;8.97;100.00
44934;BME280;30667;43.614;1.442;2023-03-20T02:53:03;100661.25;;;8.90;100.00
44934;BME280;30667;43.614;1.442;2023-03-20T02:55:42;100655.59;;;8.92;100.00
44934;BME280;30667;43.614;1.442;2023-03-20T02:58:19;100653.94;;;8.91;100.00
44934;BME280;30667;43.614;1.442;2023-03-20T03:03:32;100652.41;;;8.95;100.00
44934;BME280;30667;43.614;1.442;2023-03-20T03:06:07;100654.25;;;8.95;100.00
44934;BME280;30667;43.614;1.442;2023-03-20T03:08:38;100656.09;;;8.89;100.00
44934;BME280;30667;43.614;1.442;2023-03-20T03:11:07;100658.69;;;8.84;100.00
44934;BME280;30667;43.614;1.442;2023-03-20T03:13:37;100649.00;;;8.83;100.00
44934;BME280;30667;43.614;1.442;2023-03-20T03:16:11;100653.25;;;8.79;100.00
44934;BME280;30667;43.614;1.442;2023-03-20T03:18:40;100658.88;;;8.77;100.00
44934;BME280;30667;43.614;1.442;2023-03-20T03:21:09;100646.41;;;8.71;100.00
44934;BME280;30667;43.614;1.442;2023-03-20T03:23:45;100645.84;;;8.69;100.00
44934;BME280;30667;43.614;1.442;2023-03-20T03:26:20;100643.88;;;8.64;100.00
44934;BME280;30667;43.614;1.442;2023-03-20T03:28:54;100638.75;;;8.63;100.00
44934;BME280;30667;43.614;1.442;2023-03-20T03:31:21;100643.56;;;8.61;100.00
44934;BME280;30667;43.614;1.442;2023-03-20T03:33:51;100636.22;;;8.56;100.00
44934;BME280;30667;43.614;1.442;2023-03-20T03:39:19;100625.38;;;8.51;100.00
44934;BME280;30667;43.614;1.442;2023-03-20T03:41:54;100628.31;;;8.49;100.00
44934;BME280;30667;43.614;1.442;2023-03-20T03:44:34;100632.81;;;8.44;100.00
44934;BME280;30667;43.614;1.442;2023-03-20T03:47:20;100632.00;;;8.43;100.00
44934;BME280;30667;43.614;1.442;2023-03-20T03:50:05;100630.81;;;8.39;100.00
44934;BME280;30667;43.614;1.442;2023-03-20T03:52:33;100621.38;;;8.36;100.00
44934;BME280;30667;43.614;1.442;2023-03-20T03:55:05;100627.50;;;8.32;100.00
44934;BME280;30667;43.614;1.442;2023-03-20T03:58:03;100632.34;;;8.30;100.00
44934;BME280;30667;43.614;1.442;2023-03-20T04:00:31;100624.00;;;8.31;100.00
44934;BME280;30667;43.614;1.442;2023-03-20T04:02:58;100630.38;;;8.25;100.00
44934;BME280;30667;43.614;1.442;2023-03-20T04:05:27;100630.03;;;8.22;100.00
44934;BME280;30667;43.614;1.442;2023-03-20T04:08:00;100630.78;;;8.17;100.00
44934;BME280;30667;43.614;1.442;2023-03-20T04:10:25;100634.28;;;8.17;100.00
44934;BME280;30667;43.614;1.442;2023-03-20T04:12:51;100630.78;;;8.17;100.00
44934;BME280;30667;43.614;1.442;2023-03-20T04:15:17;100629.72;;;8.18;100.00
44934;BME280;30667;43.614;1.442;2023-03-20T04:17:43;100631.34;;;8.19;100.00
44934;BME280;30667;43.614;1.442;2023-03-20T04:20:10;100626.47;;;8.16;100.00
44934;BME280;30667;43.614;1.442;2023-03-20T04:22:36;100625.41;;;8.17;100.00
44934;BME280;30667;43.614;1.442;2023-03-20T04:25:03;100632.09;;;8.14;100.00
44934;BME280;30667;43.614;1.442;2023-03-20T04:27:29;100636.69;;;8.14;100.00
44934;BME280;30667;43.614;1.442;2023-03-20T04:29:55;100629.06;;;8.11;100.00
44934;BME280;30667;43.614;1.442;2023-03-20T04:32:20;100628.25;;;8.10;100.00
44934;BME280;30667;43.614;1.442;2023-03-20T04:34:46;100631.53;;;8.12;100.00
44934;BME280;30667;43.614;1.442;2023-03-20T04:37:12;100641.97;;;8.09;100.00
44934;BME280;30667;43.614;1.442;2023-03-20T04:39:37;100638.22;;;8.10;100.00
44934;BME280;30667;43.614;1.442;2023-03-20T04:42:04;100639.84;;;8.11;100.00
44934;BME280;30667;43.614;1.442;2023-03-20T04:44:30;100638.13;;;8.22;100.00
44934;BME280;30667;43.614;1.442;2023-03-20T04:46:55;100638.38;;;8.20;100.00
44934;BME280;30667;43.614;1.442;2023-03-20T04:49:21;100644.59;;;8.21;100.00
44934;BME280;30667;43.614;1.442;2023-03-20T04:51:46;100648.66;;;8.23;100.00
44934;BME280;30667;43.614;1.442;2023-03-20T04:54:12;100641.41;;;8.24;100.00
44934;BME280;30667;43.614;1.442;2023-03-20T04:56:37;100641.47;;;8.29;100.00
44934;BME280;30667;43.614;1.442;2023-03-20T04:59:02;100641.78;;;8.32;100.00
44934;BME280;30667;43.614;1.442;2023-03-20T05:01:28;100645.56;;;8.31;100.00
44934;BME280;30667;43.614;1.442;2023-03-20T05:03:53;100640.16;;;8.31;100.00
44934;BME280;30667;43.614;1.442;2023-03-20T05:06:27;100645.31;;;8.33;100.00
44934;BME280;30667;43.614;1.442;2023-03-20T05:08:53;100639.09;;;8.32;100.00
44934;BME280;30667;43.614;1.442;2023-03-20T05:11:19;100638.84;;;8.34;100.00
44934;BME280;30667;43.614;1.442;2023-03-20T05:13:44;100636.97;;;8.34;100.00
44934;BME280;30667;43.614;1.442;2023-03-20T05:16:10;100634.59;;;8.38;100.00
44934;BME280;30667;43.614;1.442;2023-03-20T05:18:35;100631.06;;;8.37;100.00
44934;BME280;30667;43.614;1.442;2023-03-20T05:21:01;100631.91;;;8.38;100.00
44934;BME280;30667;43.614;1.442;2023-03-20T05:23:26;100641.28;;;8.35;100.00
44934;BME280;30667;43.614;1.442;2023-03-20T05:25:52;100635.41;;;8.39;100.00
44934;BME280;30667;43.614;1.442;2023-03-20T05:28:17;100640.81;;;8.39;100.00
44934;BME280;30667;43.614;1.442;2023-03-20T05:30:43;100654.03;;;8.40;100.00
44934;BME280;30667;43.614;1.442;2023-03-20T05:33:08;100647.34;;;8.43;100.00
44934;BME280;30667;43.614;1.442;2023-03-20T05:35:33;100644.91;;;8.41;100.00
44934;BME280;30667;43.614;1.442;2023-03-20T05:37:59;100644.44;;;8.44;100.00
44934;BME280;30667;43.614;1.442;2023-03-20T05:40:25;100640.09;;;8.43;100.00
44934;BME280;30667;43.614;1.442;2023-03-20T05:42:50;100642.84;;;8.48;100.00
44934;BME280;30667;43.614;1.442;2023-03-20T05:45:17;100650.13;;;8.48;100.00
44934;BME280;30667;43.614;1.442;2023-03-20T05:47:42;100652.84;;;8.48;100.00
44934;BME280;30667;43.614;1.442;2023-03-20T05:50:09;100647.19;;;8.49;100.00
44934;BME280;30667;43.614;1.442;2023-03-20T05:52:34;100645.88;;;8.52;100.00
44934;BME280;30667;43.614;1.442;2023-03-20T05:54:59;100644.19;;;8.46;100.00
44934;BME280;30667;43.614;1.442;2023-03-20T05:57:25;100648.84;;;8.50;100.00
44934;BME280;30667;43.614;1.442;2023-03-20T05:59:51;100643.75;;;8.54;100.00
44934;BME280;30667;43.614;1.442;2023-03-20T06:02:16;100652.91;;;8.53;100.00
44934;BME280;30667;43.614;1.442;2023-03-20T06:04:42;100644.81;;;8.53;100.00
44934;BME280;30667;43.614;1.442;2023-03-20T06:07:07;100643.50;;;8.56;100.00
44934;BME280;30667;43.614;1.442;2023-03-20T06:09:33;100643.25;;;8.57;100.00
44934;BME280;30667;43.614;1.442;2023-03-20T06:11:58;100647.06;;;8.61;100.00
44934;BME280;30667;43.614;1.442;2023-03-20T06:14:24;100647.91;;;8.62;100.00
44934;BME280;30667;43.614;1.442;2023-03-20T06:16:50;100645.47;;;8.60;100.00
44934;BME280;30667;43.614;1.442;2023-03-20T06:19:16;100651.00;;;8.53;100.00
44934;BME280;30667;43.614;1.442;2023-03-20T06:21:41;100657.88;;;8.61;100.00
44934;BME280;30667;43.614;1.442;2023-03-20T06:24:07;100651.34;;;8.57;100.00
44934;BME280;30667;43.614;1.442;2023-03-20T06:26:32;100661.81;;;8.53;100.00
44934;BME280;30667;43.614;1.442;2023-03-20T06:28:58;100664.25;;;8.55;100.00
44934;BME280;30667;43.614;1.442;2023-03-20T06:31:24;100668.59;;;8.56;100.00
44934;BME280;30667;43.614;1.442;2023-03-20T06:33:49;100671.34;;;8.61;100.00
44934;BME280;30667;43.614;1.442;2023-03-20T06:36:15;100667.84;;;8.61;100.00
44934;BME280;30667;43.614;1.442;2023-03-20T06:38:40;100680.66;;;8.70;100.00
44934;BME280;30667;43.614;1.442;2023-03-20T06:41:06;100682.88;;;8.73;100.00
44934;BME280;30667;43.614;1.442;2023-03-20T06:43:31;100676.41;;;8.75;100.00
44934;BME280;30667;43.614;1.442;2023-03-20T06:45:57;100675.25;;;8.70;100.00
44934;BME280;30667;43.614;1.442;2023-03-20T06:48:22;100677.97;;;8.70;100.00
44934;BME280;30667;43.614;1.442;2023-03-20T06:50:49;100680.81;;;8.81;100.00
44934;BME280;30667;43.614;1.442;2023-03-20T06:53:14;100673.47;;;8.76;100.00
44934;BME280;30667;43.614;1.442;2023-03-20T06:55:42;100665.88;;;8.73;100.00
44934;BME280;30667;43.614;1.442;2023-03-20T06:58:07;100680.84;;;8.64;100.00
44934;BME280;30667;43.614;1.442;2023-03-20T07:00:32;100681.16;;;8.67;100.00
44934;BME280;30667;43.614;1.442;2023-03-20T07:02:58;100679.84;;;8.70;100.00
44934;BME280;30667;43.614;1.442;2023-03-20T07:05:24;100689.41;;;8.78;100.00
44934;BME280;30667;43.614;1.442;2023-03-20T07:07:50;100691.50;;;8.76;100.00
44934;BME280;30667;43.614;1.442;2023-03-20T07:10:16;100695.06;;;8.76;100.00
44934;BME280;30667;43.614;1.442;2023-03-20T07:12:41;100686.13;;;8.76;100.00
44934;BME280;30667;43.614;1.442;2023-03-20T07:15:08;100689.72;;;8.81;100.00
44934;BME280;30667;43.614;1.442;2023-03-20T07:17:33;100681.06;;;8.79;100.00
44934;BME280;30667;43.614;1.442;2023-03-20T07:19:59;100681.69;;;8.86;100.00
44934;BME280;30667;43.614;1.442;2023-03-20T07:22:28;100683.06;;;8.89;100.00
44934;BME280;30667;43.614;1.442;2023-03-20T07:24:54;100686.34;;;8.91;100.00
44934;BME280;30667;43.614;1.442;2023-03-20T07:27:19;100689.84;;;8.91;100.00
44934;BME280;30667;43.614;1.442;2023-03-20T07:29:45;100685.78;;;8.89;100.00
44934;BME280;30667;43.614;1.442;2023-03-20T07:32:11;100685.66;;;9.01;100.00
44934;BME280;30667;43.614;1.442;2023-03-20T07:34:36;100683.50;;;9.03;100.00
44934;BME280;30667;43.614;1.442;2023-03-20T07:37:03;100689.66;;;8.98;100.00
44934;BME280;30667;43.614;1.442;2023-03-20T07:39:28;100686.03;;;9.09;100.00
44934;BME280;30667;43.614;1.442;2023-03-20T07:41:54;100691.50;;;9.15;100.00
44934;BME280;30667;43.614;1.442;2023-03-20T07:44:21;100700.16;;;9.17;100.00
44934;BME280;30667;43.614;1.442;2023-03-20T07:46:46;100700.97;;;9.17;100.00
44934;BME280;30667;43.614;1.442;2023-03-20T07:49:15;100697.00;;;9.25;100.00
44934;BME280;30667;43.614;1.442;2023-03-20T07:51:45;100699.25;;;9.33;100.00
44934;BME280;30667;43.614;1.442;2023-03-20T07:54:11;100703.41;;;9.41;100.00
44934;BME280;30667;43.614;1.442;2023-03-20T07:56:36;100701.53;;;9.41;100.00
44934;BME280;30667;43.614;1.442;2023-03-20T07:59:02;100697.69;;;9.37;100.00
44934;BME280;30667;43.614;1.442;2023-03-20T08:01:28;100694.28;;;9.47;100.00
44934;BME280;30667;43.614;1.442;2023-03-20T08:03:53;100703.28;;;9.53;100.00
44934;BME280;30667;43.614;1.442;2023-03-20T08:06:19;100703.78;;;9.50;100.00
44934;BME280;30667;43.614;1.442;2023-03-20T08:08:45;100705.53;;;9.61;100.00
44934;BME280;30667;43.614;1.442;2023-03-20T08:11:11;100709.34;;;9.65;100.00
44934;BME280;30667;43.614;1.442;2023-03-20T08:13:36;100700.72;;;9.68;100.00
44934;BME280;30667;43.614;1.442;2023-03-20T08:16:02;100706.75;;;9.75;100.00
44934;BME280;30667;43.614;1.442;2023-03-20T08:18:28;100706.25;;;9.78;100.00
44934;BME280;30667;43.614;1.442;2023-03-20T08:20:54;100711.69;;;9.84;100.00
44934;BME280;30667;43.614;1.442;2023-03-20T08:23:20;100702.19;;;9.81;100.00
44934;BME280;30667;43.614;1.442;2023-03-20T08:25:49;100699.84;;;9.90;100.00
44934;BME280;30667;43.614;1.442;2023-03-20T08:28:15;100711.34;;;10.02;100.00
44934;BME280;30667;43.614;1.442;2023-03-20T08:30:41;100707.31;;;10.10;100.00
44934;BME280;30667;43.614;1.442;2023-03-20T08:33:07;100707.06;;;10.11;100.00
44934;BME280;30667;43.614;1.442;2023-03-20T08:35:33;100703.84;;;10.14;100.00
44934;BME280;30667;43.614;1.442;2023-03-20T08:37:58;100700.78;;;10.00;100.00
44934;BME280;30667;43.614;1.442;2023-03-20T08:40:24;100697.25;;;10.00;100.00
44934;BME280;30667;43.614;1.442;2023-03-20T08:42:49;100690.41;;;9.92;100.00
44934;BME280;30667;43.614;1.442;2023-03-20T08:45:15;100691.53;;;9.96;100.00
44934;BME280;30667;43.614;1.442;2023-03-20T08:47:41;100693.75;;;10.05;100.00
44934;BME280;30667;43.614;1.442;2023-03-20T08:50:07;100688.63;;;10.03;100.00
44934;BME280;30667;43.614;1.442;2023-03-20T08:52:34;100692.16;;;10.04;100.00
44934;BME280;30667;43.614;1.442;2023-03-20T08:54:59;100693.53;;;10.11;100.00
44934;BME280;30667;43.614;1.442;2023-03-20T08:57:25;100699.84;;;10.22;100.00
44934;BME280;30667;43.614;1.442;2023-03-20T08:59:50;100693.28;;;10.13;100.00
44934;BME280;30667;43.614;1.442;2023-03-20T09:02:15;100690.41;;;10.20;100.00
44934;BME280;30667;43.614;1.442;2023-03-20T09:04:41;100696.34;;;10.22;100.00
44934;BME280;30667;43.614;1.442;2023-03-20T09:07:07;100693.50;;;10.39;100.00
44934;BME280;30667;43.614;1.442;2023-03-20T09:09:32;100694.59;;;10.38;100.00
44934;BME280;30667;43.614;1.442;2023-03-20T09:11:58;100693.50;;;10.39;100.00
44934;BME280;30667;43.614;1.442;2023-03-20T09:14:25;100683.91;;;10.26;100.00
44934;BME280;30667;43.614;1.442;2023-03-20T09:16:51;100690.47;;;10.30;100.00
44934;BME280;30667;43.614;1.442;2023-03-20T09:19:17;100684.59;;;10.38;100.00
44934;BME280;30667;43.614;1.442;2023-03-20T09:21:43;100689.97;;;10.33;100.00
44934;BME280;30667;43.614;1.442;2023-03-20T09:24:08;100684.94;;;10.47;100.00
44934;BME280;30667;43.614;1.442;2023-03-20T09:26:36;100681.75;;;10.55;100.00
44934;BME280;30667;43.614;1.442;2023-03-20T09:29:01;100683.66;;;10.60;100.00
44934;BME280;30667;43.614;1.442;2023-03-20T09:31:27;100686.13;;;10.61;100.00
44934;BME280;30667;43.614;1.442;2023-03-20T09:33:52;100678.25;;;10.60;100.00
44934;BME280;30667;43.614;1.442;2023-03-20T09:36:18;100682.06;;;10.69;100.00
44934;BME280;30667;43.614;1.442;2023-03-20T09:38:43;100684.84;;;10.79;100.00
44934;BME280;30667;43.614;1.442;2023-03-20T09:41:29;100681.88;;;10.81;100.00
44934;BME280;30667;43.614;1.442;2023-03-20T09:44:28;100680.50;;;10.78;100.00
44934;BME280;30667;43.614;1.442;2023-03-20T09:52:34;100678.16;;;10.92;100.00
44934;BME280;30667;43.614;1.442;2023-03-20T09:55:13;100663.31;;;11.05;100.00
44934;BME280;30667;43.614;1.442;2023-03-20T09:57:44;100661.13;;;10.97;100.00
44934;BME280;30667;43.614;1.442;2023-03-20T10:05:26;100650.56;;;10.95;100.00
44934;BME280;30667;43.614;1.442;2023-03-20T10:07:57;100650.81;;;10.99;100.00
44934;BME280;30667;43.614;1.442;2023-03-20T10:18:59;100642.03;;;11.39;100.00
44934;BME280;30667;43.614;1.442;2023-03-20T10:21:42;100639.59;;;11.53;100.00
44934;BME280;30667;43.614;1.442;2023-03-20T10:24:24;100634.44;;;11.52;100.00
44934;BME280;30667;43.614;1.442;2023-03-20T10:26:54;100624.19;;;11.59;100.00
44934;BME280;30667;43.614;1.442;2023-03-20T10:29:45;100639.91;;;11.72;100.00
44934;BME280;30667;43.614;1.442;2023-03-20T10:32:25;100631.50;;;11.69;100.00
44934;BME280;30667;43.614;1.442;2023-03-20T10:42:54;100633.13;;;11.80;100.00
44934;BME280;30667;43.614;1.442;2023-03-20T10:45:26;100626.06;;;11.79;100.00
44934;BME280;30667;43.614;1.442;2023-03-20T10:47:56;100622.25;;;11.64;100.00
44934;BME280;30667;43.614;1.442;2023-03-20T10:50:30;100614.69;;;11.67;100.00
44934;BME280;30667;43.614;1.442;2023-03-20T10:52:59;100614.41;;;11.78;100.00
44934;BME280;30667;43.614;1.442;2023-03-20T10:55:30;100613.94;;;11.92;100.00
44934;BME280;30667;43.614;1.442;2023-03-20T10:58:02;100613.63;;;12.04;100.00
44934;BME280;30667;43.614;1.442;2023-03-20T11:00:29;100613.63;;;12.04;100.00
44934;BME280;30667;43.614;1.442;2023-03-20T11:02:54;100605.22;;;12.10;100.00
44934;BME280;30667;43.614;1.442;2023-03-20T11:07:58;100597.66;;;11.92;100.00
44934;BME280;30667;43.614;1.442;2023-03-20T11:10:26;100595.03;;;12.67;100.00
44934;BME280;30667;43.614;1.442;2023-03-20T11:12:52;100598.88;;;12.56;100.00
44934;BME280;30667;43.614;1.442;2023-03-20T11:15:31;100596.25;;;12.15;100.00
44934;BME280;30667;43.614;1.442;2023-03-20T11:18:00;100592.47;;;12.11;100.00
44934;BME280;30667;43.614;1.442;2023-03-20T11:20:32;100580.53;;;12.07;100.00
44934;BME280;30667;43.614;1.442;2023-03-20T11:23:01;100576.75;;;12.08;100.00
44934;BME280;30667;43.614;1.442;2023-03-20T11:25:44;100569.69;;;12.12;100.00
44934;BME280;30667;43.614;1.442;2023-03-20T11:28:41;100563.69;;;12.20;100.00
44934;BME280;30667;43.614;1.442;2023-03-20T11:33:38;100558.28;;;12.15;100.00
44934;BME280;30667;43.614;1.442;2023-03-20T11:36:26;100552.81;;;12.25;100.00
44934;BME280;30667;43.614;1.442;2023-03-20T11:39:01;100552.78;;;12.41;100.00
44934;BME280;30667;43.614;1.442;2023-03-20T11:41:30;100554.91;;;12.49;100.00
44934;BME280;30667;43.614;1.442;2023-03-20T11:43:55;100541.88;;;12.56;100.00
44934;BME280;30667;43.614;1.442;2023-03-20T11:46:22;100540.50;;;12.64;100.00
44934;BME280;30667;43.614;1.442;2023-03-20T11:49:04;100543.22;;;12.64;100.00
44934;BME280;30667;43.614;1.442;2023-03-20T11:51:31;100540.78;;;12.57;100.00
44934;BME280;30667;43.614;1.442;2023-03-20T11:54:01;100539.41;;;12.60;100.00
44934;BME280;30667;43.614;1.442;2023-03-20T11:56:29;100536.13;;;12.68;100.00
44934;BME280;30667;43.614;1.442;2023-03-20T12:01:47;100528.84;;;12.58;100.00
44934;BME280;30667;43.614;1.442;2023-03-20T12:06:52;100516.34;;;12.57;100.00
44934;BME280;30667;43.614;1.442;2023-03-20T12:20:23;100505.38;;;12.83;100.00
44934;BME280;30667;43.614;1.442;2023-03-20T12:23:11;100505.38;;;12.83;100.00
44934;BME280;30667;43.614;1.442;2023-03-20T12:25:58;100484.38;;;12.94;100.00
44934;BME280;30667;43.614;1.442;2023-03-20T12:28:31;100479.72;;;12.99;100.00
44934;BME280;30667;43.614;1.442;2023-03-20T12:31:14;100484.38;;;12.99;100.00
44934;BME280;30667;43.614;1.442;2023-03-20T12:34:02;100478.59;;;13.05;100.00
44934;BME280;30667;43.614;1.442;2023-03-20T12:36:35;100476.63;;;13.16;100.00
44934;BME280;30667;43.614;1.442;2023-03-20T12:39:05;100471.50;;;13.09;100.00
44934;BME280;30667;43.614;1.442;2023-03-20T12:41:42;100465.50;;;13.13;100.00
44934;BME280;30667;43.614;1.442;2023-03-20T12:52:14;100449.16;;;13.18;100.00
44934;BME280;30667;43.614;1.442;2023-03-20T13:00:04;100440.34;;;13.31;100.00
44934;BME280;30667;43.614;1.442;2023-03-20T13:05:17;100434.28;;;13.44;99.43
44934;BME280;30667;43.614;1.442;2023-03-20T13:07:57;100427.41;;;13.23;100.00
44934;BME280;30667;43.614;1.442;2023-03-20T13:11:20;100420.28;;;13.27;100.00
44934;BME280;30667;43.614;1.442;2023-03-20T13:13:32;100414.56;;;13.29;100.00
44934;BME280;30667;43.614;1.442;2023-03-20T13:20:55;100411.44;;;13.46;100.00
44934;BME280;30667;43.614;1.442;2023-03-20T13:23:33;100413.53;;;13.54;100.00
44934;BME280;30667;43.614;1.442;2023-03-20T13:26:25;100410.03;;;13.48;100.00
44934;BME280;30667;43.614;1.442;2023-03-20T13:34:32;100392.94;;;13.72;100.00
44934;BME280;30667;43.614;1.442;2023-03-20T13:37:32;100399.25;;;13.67;100.00
44934;BME280;30667;43.614;1.442;2023-03-20T13:40:17;100391.00;;;13.77;100.00
44934;BME280;30667;43.614;1.442;2023-03-20T13:45:37;100385.03;;;13.75;100.00
44934;BME280;30667;43.614;1.442;2023-03-20T13:50:50;100377.16;;;13.74;99.76
44934;BME280;30667;43.614;1.442;2023-03-20T14:04:29;100362.94;;;13.82;98.46
44934;BME280;30667;43.614;1.442;2023-03-20T14:06:57;100365.38;;;14.03;97.97
44934;BME280;30667;43.614;1.442;2023-03-20T14:09:31;100364.81;;;14.06;96.17
44934;BME280;30667;43.614;1.442;2023-03-20T14:12:05;100359.69;;;13.99;88.99
44934;BME280;30667;43.614;1.442;2023-03-20T14:14:46;100353.69;;;14.02;89.23
44934;BME280;30667;43.614;1.442;2023-03-20T14:17:24;100351.94;;;14.11;91.23
44934;BME280;30667;43.614;1.442;2023-03-20T14:19:51;100351.34;;;14.14;92.89
44934;BME280;30667;43.614;1.442;2023-03-20T14:22:25;100355.81;;;14.05;92.23
44934;BME280;30667;43.614;1.442;2023-03-20T14:24:57;100355.44;;;14.12;92.74
44934;BME280;30667;43.614;1.442;2023-03-20T14:27:26;100349.13;;;13.97;92.46
44934;BME280;30667;43.614;1.442;2023-03-20T14:29:52;100342.50;;;14.04;92.70
44934;BME280;30667;43.614;1.442;2023-03-20T14:32:30;100341.63;;;14.08;86.90
44934;BME280;30667;43.614;1.442;2023-03-20T14:35:20;100336.69;;;14.10;82.11
44934;BME280;30667;43.614;1.442;2023-03-20T14:41:13;100319.56;;;14.10;78.99
44934;BME280;30667;43.614;1.442;2023-03-20T14:46:47;100312.97;;;14.16;76.79
44934;BME280;30667;43.614;1.442;2023-03-20T14:54:54;100306.19;;;14.32;74.42
44934;BME280;30667;43.614;1.442;2023-03-20T14:57:32;100302.56;;;14.18;78.88
44934;BME280;30667;43.614;1.442;2023-03-20T14:59:58;100311.84;;;14.36;80.07
44934;BME280;30667;43.614;1.442;2023-03-20T15:02:27;100309.06;;;14.41;78.62
44934;BME280;30667;43.614;1.442;2023-03-20T15:04:53;100305.16;;;14.47;77.60
44934;BME280;30667;43.614;1.442;2023-03-20T15:09:47;100307.88;;;14.47;74.30
44934;BME280;30667;43.614;1.442;2023-03-20T15:12:17;100300.59;;;14.62;77.33
44934;BME280;30667;43.614;1.442;2023-03-20T15:14:58;100305.34;;;14.70;72.40
44934;BME280;30667;43.614;1.442;2023-03-20T15:17:43;100307.47;;;14.73;76.61
44934;BME280;30667;43.614;1.442;2023-03-20T15:22:55;100304.47;;;14.75;71.71
44934;BME280;30667;43.614;1.442;2023-03-20T15:27:57;100299.72;;;14.80;73.69